createdAt,value
2022-12-19T00:01:35.834Z,16.70
2022-12-19T00:04:07.060Z,16.43
2022-12-19T00:06:36.761Z,16.60
2022-12-19T00:09:03.588Z,17.50
2022-12-19T00:11:30.874Z,16.90
2022-12-19T00:13:58.297Z,16.70
2022-12-19T00:16:28.246Z,17.03
2022-12-19T00:18:57.609Z,18.20
2022-12-19T00:21:28.115Z,17.47
2022-12-19T00:23:55.318Z,17.33
2022-12-19T00:26:27.494Z,17.43
2022-12-19T00:28:59.788Z,17.10
2022-12-19T00:31:29.043Z,17.70
2022-12-19T00:33:56.031Z,18.40
2022-12-19T00:36:25.426Z,18.37
2022-12-19T00:38:53.785Z,17.07
2022-12-19T00:41:32.930Z,17.80
2022-12-19T00:44:02.371Z,18.83
2022-12-19T00:46:30.954Z,17.87
2022-12-19T00:48:57.939Z,18.70
2022-12-19T00:51:27.729Z,17.87
2022-12-19T00:53:56.525Z,17.53
2022-12-19T00:56:25.890Z,19.97
2022-12-19T00:58:53.204Z,18.60
2022-12-19T01:01:26.167Z,18.03
2022-12-19T01:04:26.779Z,18.27
2022-12-19T01:06:40.681Z,17.93
2022-12-19T01:09:08.131Z,36.93
2022-12-19T01:11:53.417Z,22.57
2022-12-19T01:14:22.990Z,19.23
2022-12-19T01:16:51.129Z,18.10
2022-12-19T01:19:17.989Z,17.87
2022-12-19T01:21:44.700Z,19.50
2022-12-19T01:24:11.976Z,19.50
2022-12-19T01:26:40.408Z,19.17
2022-12-19T01:29:07.175Z,18.83
2022-12-19T01:31:34.172Z,20.43
2022-12-19T01:34:01.486Z,18.17
2022-12-19T01:36:29.773Z,19.20
2022-12-19T01:38:58.152Z,18.47
2022-12-19T01:41:25.410Z,19.77
2022-12-19T01:44:03.935Z,19.30
2022-12-19T01:46:39.951Z,19.90
2022-12-19T01:49:20.955Z,20.53
2022-12-19T01:51:55.384Z,19.27
2022-12-19T01:54:26.942Z,19.97
2022-12-19T01:57:00.461Z,19.57
2022-12-19T01:59:34.061Z,19.50
2022-12-19T02:02:10.943Z,19.53
2022-12-19T02:04:40.708Z,20.33
2022-12-19T02:07:15.616Z,20.57
2022-12-19T02:09:45.711Z,20.07
2022-12-19T02:12:12.958Z,19.67
2022-12-19T02:14:40.321Z,23.00
2022-12-19T02:17:18.129Z,19.63
2022-12-19T02:20:12.263Z,19.57
2022-12-19T02:22:50.704Z,20.23
2022-12-19T02:25:51.255Z,20.13
2022-12-19T02:28:31.753Z,19.50
2022-12-19T02:31:19.777Z,19.83
2022-12-19T02:34:09.502Z,20.27
2022-12-19T02:37:03.492Z,19.83
2022-12-19T02:39:43.849Z,19.87
2022-12-19T02:42:15.212Z,19.67
2022-12-19T02:44:50.020Z,20.50
2022-12-19T02:47:17.407Z,21.17
2022-12-19T02:49:44.216Z,20.30
2022-12-19T02:52:21.176Z,20.33
2022-12-19T02:54:50.804Z,19.83
2022-12-19T02:57:28.278Z,20.50
2022-12-19T02:59:55.218Z,20.07
2022-12-19T03:03:00.695Z,20.30
2022-12-19T03:05:49.773Z,21.37
2022-12-19T03:08:27.922Z,20.37
2022-12-19T03:11:05.242Z,20.77
2022-12-19T03:13:39.281Z,21.30
2022-12-19T03:16:09.590Z,21.20
2022-12-19T03:18:36.533Z,21.43
2022-12-19T03:21:25.893Z,22.53
2022-12-19T03:23:55.544Z,20.80
2022-12-19T03:26:27.711Z,22.00
2022-12-19T03:29:15.995Z,21.97
2022-12-19T03:31:44.911Z,22.53
2022-12-19T03:34:51.796Z,22.23
2022-12-19T03:37:24.342Z,21.37
2022-12-19T03:39:57.567Z,20.20
2022-12-19T03:42:46.244Z,22.63
2022-12-19T03:45:16.067Z,22.47
2022-12-19T03:47:50.960Z,23.10
2022-12-19T03:50:18.618Z,23.03
2022-12-19T03:52:59.978Z,22.60
2022-12-19T03:55:29.213Z,22.83
2022-12-19T03:58:09.692Z,22.50
2022-12-19T04:00:39.915Z,22.97
2022-12-19T04:03:08.195Z,23.93
2022-12-19T04:05:37.036Z,23.33
2022-12-19T04:08:07.707Z,22.70
2022-12-19T04:10:46.997Z,22.00
2022-12-19T04:13:17.957Z,25.10
2022-12-19T04:16:08.342Z,25.17
2022-12-19T04:18:36.275Z,23.37
2022-12-19T04:21:08.894Z,23.30
2022-12-19T04:23:42.647Z,23.20
2022-12-19T04:26:11.075Z,22.83
2022-12-19T04:28:48.372Z,23.50
2022-12-19T04:31:16.075Z,24.63
2022-12-19T04:33:43.100Z,24.50
2022-12-19T04:36:10.998Z,23.50
2022-12-19T04:38:37.726Z,23.73
2022-12-19T04:41:04.445Z,24.23
2022-12-19T04:43:31.408Z,23.90
2022-12-19T04:45:58.120Z,24.87
2022-12-19T04:48:25.405Z,24.10
2022-12-19T04:50:52.387Z,25.10
2022-12-19T04:53:19.164Z,24.57
2022-12-19T04:55:45.848Z,24.23
2022-12-19T04:58:16.334Z,25.57
2022-12-19T05:00:45.817Z,25.57
2022-12-19T05:03:12.807Z,30.77
2022-12-19T05:05:40.721Z,26.40
2022-12-19T05:08:07.775Z,26.33
2022-12-19T05:10:35.963Z,26.63
2022-12-19T05:13:02.669Z,24.90
2022-12-19T05:15:29.668Z,26.40
2022-12-19T05:17:57.603Z,26.20
2022-12-19T05:20:24.297Z,25.90
2022-12-19T05:22:51.013Z,24.97
2022-12-19T05:25:17.725Z,25.53
2022-12-19T05:27:44.392Z,26.60
2022-12-19T05:30:11.608Z,25.47
2022-12-19T05:32:38.824Z,25.30
2022-12-19T05:35:06.037Z,26.07
2022-12-19T05:37:35.051Z,26.30
2022-12-19T05:40:01.911Z,26.87
2022-12-19T05:42:28.606Z,26.50
2022-12-19T05:44:55.304Z,25.67
2022-12-19T05:47:22.054Z,26.43
2022-12-19T05:49:48.756Z,26.40
2022-12-19T05:52:15.432Z,26.77
2022-12-19T05:54:42.172Z,27.03
2022-12-19T05:57:08.856Z,25.00
2022-12-19T05:59:35.549Z,27.50
2022-12-19T06:02:02.413Z,27.33
2022-12-19T06:04:30.046Z,27.23
2022-12-19T06:06:56.782Z,27.60
2022-12-19T06:09:23.561Z,26.70
2022-12-19T06:11:51.137Z,26.30
2022-12-19T06:14:17.942Z,27.17
2022-12-19T06:16:44.757Z,26.80
2022-12-19T06:19:11.479Z,27.47
2022-12-19T06:21:45.482Z,27.30
2022-12-19T06:24:14.575Z,26.97
2022-12-19T06:26:41.446Z,27.30
2022-12-19T06:29:08.200Z,27.67
2022-12-19T06:31:35.020Z,27.23
2022-12-19T06:34:02.423Z,26.47
2022-12-19T06:36:30.710Z,28.90
2022-12-19T06:38:58.460Z,25.63
2022-12-19T06:41:44.152Z,26.77
2022-12-19T06:44:13.088Z,26.73
2022-12-19T06:46:40.821Z,28.53
2022-12-19T06:49:07.841Z,27.47
2022-12-19T06:51:34.960Z,27.90
2022-12-19T06:54:02.015Z,26.43
2022-12-19T06:56:33.902Z,27.03
2022-12-19T06:59:00.855Z,28.60
2022-12-19T07:01:34.788Z,26.93
2022-12-19T07:04:01.744Z,27.27
2022-12-19T07:06:28.607Z,27.97
2022-12-19T07:08:55.326Z,27.50
2022-12-19T07:11:22.106Z,28.17
2022-12-19T07:13:48.773Z,27.63
2022-12-19T07:16:15.599Z,28.17
2022-12-19T07:18:42.626Z,27.80
2022-12-19T07:21:13.853Z,27.43
2022-12-19T07:23:41.267Z,27.40
2022-12-19T07:26:08.423Z,26.97
2022-12-19T07:28:35.910Z,27.73
2022-12-19T07:31:02.655Z,26.43
2022-12-19T07:33:29.382Z,28.43
2022-12-19T07:35:56.091Z,27.57
2022-12-19T07:38:22.836Z,26.80
2022-12-19T07:40:49.568Z,26.93
2022-12-19T07:43:16.323Z,27.87
2022-12-19T07:45:43.133Z,27.70
2022-12-19T07:48:10.233Z,27.20
2022-12-19T07:50:36.992Z,27.83
2022-12-19T07:53:03.741Z,26.90
2022-12-19T07:55:30.580Z,28.13
2022-12-19T07:57:57.358Z,26.57
2022-12-19T08:00:24.116Z,26.47
2022-12-19T08:02:50.975Z,25.90
2022-12-19T08:05:17.874Z,25.93
2022-12-19T08:07:44.727Z,26.80
2022-12-19T08:10:12.649Z,26.87
2022-12-19T08:12:39.527Z,26.73
2022-12-19T08:15:07.790Z,26.87
2022-12-19T08:17:35.437Z,27.53
2022-12-19T08:20:02.355Z,25.93
2022-12-19T08:22:30.595Z,26.33
2022-12-19T08:24:57.704Z,26.63
2022-12-19T08:27:24.967Z,26.73
2022-12-19T08:29:52.180Z,28.77
2022-12-19T08:32:21.391Z,26.17
2022-12-19T08:34:50.114Z,27.43
2022-12-19T08:37:17.486Z,27.47
2022-12-19T08:39:44.448Z,26.27
2022-12-19T08:42:11.221Z,25.80
2022-12-19T08:44:37.914Z,25.80
2022-12-19T08:47:04.823Z,26.27
2022-12-19T08:49:31.549Z,26.93
2022-12-19T08:51:58.403Z,26.53
2022-12-19T08:54:25.138Z,26.07
2022-12-19T08:56:51.856Z,25.37
2022-12-19T08:59:30.368Z,26.80
2022-12-19T09:01:59.595Z,25.57
2022-12-19T09:05:58.787Z,26.83
2022-12-19T09:07:15.744Z,26.23
2022-12-19T09:09:43.705Z,26.20
2022-12-19T09:12:11.819Z,26.60
2022-12-19T09:14:38.495Z,26.63
2022-12-19T09:17:05.261Z,24.90
2022-12-19T09:19:32.382Z,26.57
2022-12-19T09:21:59.247Z,26.30
2022-12-19T09:24:26.324Z,26.23
2022-12-19T09:26:53.459Z,26.50
2022-12-19T09:29:21.744Z,25.70
2022-12-19T09:31:55.394Z,25.00
2022-12-19T09:34:36.942Z,26.30
2022-12-19T09:37:15.824Z,27.03
2022-12-19T09:39:45.446Z,26.60
2022-12-19T09:42:15.016Z,26.33
2022-12-19T09:45:02.256Z,26.20
2022-12-19T09:47:33.919Z,26.00
2022-12-19T09:50:02.276Z,26.93
2022-12-19T09:52:35.282Z,27.13
2022-12-19T09:55:44.913Z,27.10
2022-12-19T09:58:32.573Z,27.63
2022-12-19T10:01:04.475Z,25.53
2022-12-19T10:03:40.042Z,25.63
2022-12-19T10:07:09.440Z,27.73
2022-12-19T10:11:35.792Z,25.77
2022-12-19T10:12:44.838Z,26.30
2022-12-19T10:15:40.613Z,25.33
2022-12-19T10:18:32.038Z,26.77
2022-12-19T10:21:20.596Z,25.50
2022-12-19T10:24:38.093Z,26.20
2022-12-19T10:27:26.490Z,25.50
2022-12-19T10:30:11.124Z,25.80
2022-12-19T10:32:43.911Z,25.40
2022-12-19T10:35:17.491Z,26.83
2022-12-19T10:38:19.459Z,26.07
2022-12-19T10:40:52.045Z,25.67
2022-12-19T10:43:52.246Z,25.33
2022-12-19T10:46:37.615Z,24.33
2022-12-19T10:49:21.881Z,25.23
2022-12-19T10:52:11.218Z,25.60
2022-12-19T10:54:37.977Z,26.17
2022-12-19T10:57:19.854Z,25.60
2022-12-19T11:00:14.532Z,23.93
2022-12-19T11:02:47.580Z,26.60
2022-12-19T11:05:23.459Z,25.77
2022-12-19T11:08:08.904Z,25.83
2022-12-19T11:11:53.727Z,24.77
2022-12-19T11:19:30.243Z,24.77
2022-12-19T11:22:17.331Z,26.07
2022-12-19T11:29:16.904Z,24.60
2022-12-19T11:29:31.324Z,25.53
2022-12-19T11:30:46.601Z,25.53
2022-12-19T11:30:47.279Z,24.50
2022-12-19T11:34:23.883Z,24.30
2022-12-19T11:37:14.601Z,26.13
2022-12-19T11:40:13.632Z,24.77
2022-12-19T11:43:42.750Z,25.27
2022-12-19T11:46:04.527Z,25.23
2022-12-19T11:48:44.434Z,24.67
2022-12-19T11:52:02.063Z,25.17
2022-12-19T11:54:59.213Z,25.03
2022-12-19T11:57:27.180Z,24.63
2022-12-19T11:59:55.644Z,25.43
2022-12-19T12:02:42.115Z,24.03
2022-12-19T12:05:32.916Z,26.43
2022-12-19T12:11:40.882Z,24.63
2022-12-19T12:20:25.304Z,26.03
2022-12-19T12:25:09.740Z,27.33
2022-12-19T12:31:21.024Z,25.00
2022-12-19T12:31:25.831Z,25.93
2022-12-19T12:31:41.758Z,25.67
2022-12-19T12:32:02.057Z,25.53
2022-12-19T12:32:02.262Z,25.33
2022-12-19T12:35:38.454Z,25.03
2022-12-19T12:38:45.590Z,25.90
2022-12-19T12:41:58.769Z,24.83
2022-12-19T12:44:32.641Z,23.83
2022-12-19T12:47:06.783Z,24.43
2022-12-19T12:50:03.751Z,25.03
2022-12-19T12:52:39.199Z,24.80
2022-12-19T12:55:15.729Z,24.20
2022-12-19T12:57:42.516Z,26.23
2022-12-19T13:00:15.736Z,24.30
2022-12-19T13:02:47.399Z,24.67
2022-12-19T13:05:32.347Z,21.93
2022-12-19T13:07:59.511Z,23.57
2022-12-19T13:10:32.216Z,24.47
2022-12-19T13:13:09.369Z,24.87
2022-12-19T13:15:43.405Z,24.87
2022-12-19T13:18:31.494Z,24.87
2022-12-19T13:20:59.846Z,25.07
2022-12-19T13:23:26.496Z,23.50
2022-12-19T13:25:54.556Z,23.43
2022-12-19T13:28:21.280Z,22.70
2022-12-19T13:31:21.075Z,24.33
2022-12-19T13:33:56.000Z,24.63
2022-12-19T13:39:47.804Z,24.17
2022-12-19T13:40:07.512Z,22.80
2022-12-19T13:43:10.956Z,22.73
2022-12-19T13:45:41.393Z,24.07
2022-12-19T13:48:18.625Z,22.97
2022-12-19T13:50:49.604Z,23.47
2022-12-19T13:53:22.867Z,23.63
2022-12-19T13:55:50.024Z,24.17
2022-12-19T13:58:40.028Z,21.67
2022-12-19T14:01:20.901Z,23.83
2022-12-19T14:03:50.451Z,22.83
2022-12-19T14:06:38.327Z,23.00
2022-12-19T14:11:27.109Z,21.93
2022-12-19T14:13:57.406Z,21.03
2022-12-19T14:15:43.979Z,22.33
2022-12-19T14:18:45.356Z,22.67
2022-12-19T14:22:10.511Z,22.67
2022-12-19T14:24:11.071Z,23.17
2022-12-19T14:28:26.981Z,22.37
2022-12-19T14:30:28.283Z,22.30
2022-12-19T14:33:21.991Z,22.00
2022-12-19T14:36:09.920Z,22.07
2022-12-19T14:39:26.828Z,21.73
2022-12-19T14:41:09.470Z,22.27
2022-12-19T14:44:00.007Z,21.43
2022-12-19T14:54:01.421Z,22.67
2022-12-19T14:54:06.893Z,22.00
2022-12-19T14:54:21.294Z,23.60
2022-12-19T14:56:16.610Z,22.53
2022-12-19T14:58:56.025Z,21.97
2022-12-19T15:01:32.319Z,22.30
2022-12-19T15:04:50.711Z,21.50
2022-12-19T15:07:11.982Z,22.77
2022-12-19T15:11:05.011Z,21.07
2022-12-19T15:14:54.922Z,22.67
2022-12-19T15:16:06.113Z,23.03
2022-12-19T15:18:33.033Z,22.30
2022-12-19T15:21:09.627Z,21.30
2022-12-19T15:23:36.505Z,21.63
2022-12-19T15:26:13.041Z,22.20
2022-12-19T15:28:51.414Z,21.47
2022-12-19T15:31:18.182Z,21.00
2022-12-19T15:34:14.382Z,22.40
2022-12-19T15:36:31.787Z,21.07
2022-12-19T15:38:58.979Z,27.07
2022-12-19T15:41:25.801Z,20.87
2022-12-19T15:44:03.533Z,22.50
2022-12-19T15:46:31.528Z,20.80
2022-12-19T15:48:58.317Z,21.63
2022-12-19T15:51:25.656Z,20.93
2022-12-19T15:53:52.383Z,21.70
2022-12-19T15:56:28.923Z,22.20
2022-12-19T15:58:58.453Z,22.63
2022-12-19T16:01:26.609Z,22.43
2022-12-19T16:03:54.048Z,23.43
2022-12-19T16:06:21.040Z,22.37
2022-12-19T16:08:47.833Z,21.60
2022-12-19T16:11:24.401Z,21.67
2022-12-19T16:13:55.600Z,21.40
2022-12-19T16:16:22.736Z,21.27
2022-12-19T16:18:49.716Z,21.80
2022-12-19T16:21:27.366Z,21.57
2022-12-19T16:23:58.137Z,21.50
2022-12-19T16:26:32.777Z,21.57
2022-12-19T16:28:59.723Z,20.70
2022-12-19T16:31:27.643Z,20.57
2022-12-19T16:33:54.542Z,21.03
2022-12-19T16:36:21.889Z,20.70
2022-12-19T16:38:48.903Z,20.23
2022-12-19T16:41:19.615Z,20.53
2022-12-19T16:43:46.711Z,20.43
2022-12-19T16:46:18.355Z,23.53
2022-12-19T16:48:45.253Z,23.00
2022-12-19T16:51:22.197Z,21.20
2022-12-19T16:53:50.693Z,21.37
2022-12-19T16:56:31.341Z,23.37
2022-12-19T16:59:01.233Z,24.63
2022-12-19T17:01:28.718Z,22.93
2022-12-19T17:03:55.551Z,21.47
2022-12-19T17:06:23.217Z,23.00
2022-12-19T17:08:49.953Z,32.87
2022-12-19T17:11:23.076Z,24.83
2022-12-19T17:13:52.746Z,24.03
2022-12-19T17:16:19.702Z,23.37
2022-12-19T17:18:47.285Z,21.90
2022-12-19T17:21:20.261Z,22.53
2022-12-19T17:23:47.936Z,24.23
2022-12-19T17:26:18.031Z,24.57
2022-12-19T17:28:48.133Z,24.10
2022-12-19T17:31:25.740Z,23.43
2022-12-19T17:33:54.991Z,22.73
2022-12-19T17:36:28.704Z,21.87
2022-12-19T17:38:58.295Z,21.33
2022-12-19T17:41:25.581Z,22.70
2022-12-19T17:43:52.312Z,22.83
2022-12-19T17:46:22.291Z,22.30
2022-12-19T17:48:51.921Z,22.93
2022-12-19T17:51:20.495Z,21.23
2022-12-19T17:53:47.399Z,21.30
2022-12-19T17:56:16.044Z,23.17
2022-12-19T17:58:43.298Z,23.03
2022-12-19T18:01:31.291Z,23.97
2022-12-19T18:03:59.658Z,21.50
2022-12-19T18:06:26.454Z,22.83
2022-12-19T18:08:53.386Z,22.50
2022-12-19T18:11:22.979Z,25.03
2022-12-19T18:13:50.043Z,22.27
2022-12-19T18:16:20.815Z,23.20
2022-12-19T18:18:48.175Z,23.03
2022-12-19T18:21:17.907Z,23.73
2022-12-19T18:23:44.937Z,23.00
2022-12-19T18:26:13.035Z,25.00
2022-12-19T18:28:42.850Z,23.10
2022-12-19T18:31:17.945Z,23.67
2022-12-19T18:33:47.253Z,24.50
2022-12-19T18:36:19.386Z,24.43
2022-12-19T18:38:46.898Z,24.10
2022-12-19T18:41:13.671Z,22.67
2022-12-19T18:43:40.588Z,22.93
2022-12-19T18:46:11.784Z,25.87
2022-12-19T18:48:38.573Z,23.60
2022-12-19T18:51:05.968Z,24.67
2022-12-19T18:53:35.744Z,23.60
2022-12-19T18:56:04.817Z,24.13
2022-12-19T18:58:32.198Z,24.07
2022-12-19T19:01:00.443Z,24.53
2022-12-19T19:03:37.287Z,24.20
2022-12-19T19:06:06.480Z,24.90
2022-12-19T19:08:34.731Z,24.73
2022-12-19T19:11:01.815Z,24.23
2022-12-19T19:13:29.665Z,25.53
2022-12-19T19:16:01.564Z,23.80
2022-12-19T19:18:40.138Z,25.73
2022-12-19T19:21:10.940Z,24.17
2022-12-19T19:23:43.461Z,25.33
2022-12-19T19:26:10.277Z,25.73
2022-12-19T19:28:39.901Z,24.80
2022-12-19T19:31:10.991Z,25.27
2022-12-19T19:33:46.333Z,25.23
2022-12-19T19:36:20.348Z,23.53
2022-12-19T19:38:51.246Z,27.53
2022-12-19T19:41:18.038Z,25.97
2022-12-19T19:43:44.819Z,28.23
2022-12-19T19:46:15.208Z,23.83
2022-12-19T19:48:42.674Z,23.87
2022-12-19T19:51:09.738Z,23.57
2022-12-19T19:53:36.494Z,25.10
2022-12-19T19:56:04.836Z,24.30
2022-12-19T19:58:32.159Z,25.27
2022-12-19T20:00:59.202Z,26.33
2022-12-19T20:03:26.618Z,23.77
2022-12-19T20:06:01.055Z,26.07
2022-12-19T20:08:30.971Z,25.20
2022-12-19T20:11:00.589Z,24.70
2022-12-19T20:13:29.797Z,25.13
2022-12-19T20:16:04.733Z,25.30
2022-12-19T20:18:31.729Z,24.40
2022-12-19T20:20:58.529Z,25.73
2022-12-19T20:23:25.412Z,28.57
2022-12-19T20:25:52.297Z,29.17
2022-12-19T20:28:19.149Z,27.80
2022-12-19T20:30:47.174Z,26.50
2022-12-19T20:33:14.079Z,26.03
2022-12-19T20:35:40.880Z,25.47
2022-12-19T20:38:07.586Z,25.90
2022-12-19T20:40:34.329Z,25.27
2022-12-19T20:43:01.124Z,24.33
2022-12-19T20:45:28.019Z,24.67
2022-12-19T20:47:55.319Z,25.23
2022-12-19T20:50:22.430Z,24.13
2022-12-19T20:52:49.154Z,25.23
2022-12-19T20:55:15.990Z,30.23
2022-12-19T20:57:42.681Z,26.57
2022-12-19T21:00:10.521Z,26.23
2022-12-19T21:03:16.716Z,25.70
2022-12-19T21:05:24.030Z,25.67
2022-12-19T21:07:50.780Z,25.27
2022-12-19T21:10:17.566Z,25.37
2022-12-19T21:12:47.843Z,23.87
2022-12-19T21:15:15.500Z,25.03
2022-12-19T21:17:42.386Z,25.53
2022-12-19T21:20:09.893Z,25.47
2022-12-19T21:22:36.757Z,26.17
2022-12-19T21:25:04.200Z,25.13
2022-12-19T21:27:30.949Z,26.00
2022-12-19T21:29:57.703Z,24.67
2022-12-19T21:32:24.429Z,24.03
2022-12-19T21:34:53.162Z,28.83
2022-12-19T21:37:20.036Z,27.60
2022-12-19T21:39:46.731Z,27.33
2022-12-19T21:42:13.452Z,24.17
2022-12-19T21:44:40.211Z,24.87
2022-12-19T21:47:06.988Z,24.13
2022-12-19T21:49:33.751Z,24.23
2022-12-19T21:52:00.452Z,24.80
2022-12-19T21:54:27.145Z,23.47
2022-12-19T21:56:53.908Z,24.10
2022-12-19T21:59:20.625Z,23.20
2022-12-19T22:01:47.611Z,25.00
2022-12-19T22:04:20.651Z,25.10
2022-12-19T22:06:50.127Z,24.37
2022-12-19T22:09:19.328Z,23.83
2022-12-19T22:11:46.354Z,23.33
2022-12-19T22:14:14.658Z,23.67
2022-12-19T22:16:41.737Z,24.17
2022-12-19T22:19:09.888Z,23.47
2022-12-19T22:21:37.097Z,22.83
2022-12-19T22:24:04.712Z,24.83
2022-12-19T22:26:32.358Z,24.03
2022-12-19T22:28:59.445Z,23.63
2022-12-19T22:31:32.017Z,24.77
2022-12-19T22:34:16.443Z,23.17
2022-12-19T22:36:44.475Z,23.03
2022-12-19T22:39:16.366Z,24.57
2022-12-19T22:41:43.302Z,23.17
2022-12-19T22:44:17.147Z,24.20
2022-12-19T22:46:44.181Z,23.70
2022-12-19T22:49:12.411Z,24.40
2022-12-19T22:51:39.776Z,24.57
2022-12-19T22:54:06.942Z,24.17
2022-12-19T22:56:34.679Z,25.43
2022-12-19T22:59:04.489Z,24.23
2022-12-19T23:01:37.468Z,24.27
2022-12-19T23:04:06.211Z,23.60
2022-12-19T23:06:35.848Z,25.20
2022-12-19T23:09:03.662Z,24.17
2022-12-19T23:11:34.123Z,23.50
2022-12-19T23:14:02.247Z,23.03
2022-12-19T23:16:29.156Z,26.23
2022-12-19T23:18:56.006Z,23.13
2022-12-19T23:21:24.597Z,25.43
2022-12-19T23:23:53.901Z,22.97
2022-12-19T23:26:33.099Z,23.60
2022-12-19T23:29:02.467Z,22.57
2022-12-19T23:31:30.008Z,25.17
2022-12-19T23:33:57.664Z,23.37
2022-12-19T23:37:00.367Z,24.30
2022-12-19T23:39:12.540Z,24.77
2022-12-19T23:41:40.049Z,24.30
2022-12-19T23:44:07.195Z,23.87
2022-12-19T23:46:33.912Z,24.43
2022-12-19T23:49:00.710Z,23.67
2022-12-19T23:51:28.721Z,22.33
2022-12-19T23:53:56.489Z,21.27
2022-12-19T23:56:24.559Z,23.23
2022-12-19T23:58:51.752Z,23.00
